sensor_id;sensor_type;location;lat;lon;timestamp;P1;durP1;ratioP1;P2;durP2;ratioP2
16543;SDS011;8384;47.996;7.786;2022-10-16T00:01:17;10.33;;;1.40;;
16543;SDS011;8384;47.996;7.786;2022-10-16T00:03:45;4.10;;;1.10;;
16543;SDS011;8384;47.996;7.786;2022-10-16T00:06:11;3.47;;;1.00;;
16543;SDS011;8384;47.996;7.786;2022-10-16T00:08:38;8.47;;;1.70;;
16543;SDS011;8384;47.996;7.786;2022-10-16T00:11:05;2.77;;;1.70;;
16543;SDS011;8384;47.996;7.786;2022-10-16T00:13:33;5.73;;;2.07;;
16543;SDS011;8384;47.996;7.786;2022-10-16T00:16:00;5.97;;;1.80;;
16543;SDS011;8384;47.996;7.786;2022-10-16T00:18:26;8.73;;;2.67;;
16543;SDS011;8384;47.996;7.786;2022-10-16T00:20:52;7.47;;;2.00;;
16543;SDS011;8384;47.996;7.786;2022-10-16T00:23:18;3.17;;;1.60;;
16543;SDS011;8384;47.996;7.786;2022-10-16T00:25:43;7.03;;;1.50;;
16543;SDS011;8384;47.996;7.786;2022-10-16T00:28:08;3.33;;;1.17;;
16543;SDS011;8384;47.996;7.786;2022-10-16T00:30:37;4.40;;;1.20;;
16543;SDS011;8384;47.996;7.786;2022-10-16T00:33:02;1.70;;;1.27;;
16543;SDS011;8384;47.996;7.786;2022-10-16T00:35:28;4.27;;;1.40;;
16543;SDS011;8384;47.996;7.786;2022-10-16T00:37:54;2.90;;;1.30;;
16543;SDS011;8384;47.996;7.786;2022-10-16T00:40:19;1.23;;;1.10;;
16543;SDS011;8384;47.996;7.786;2022-10-16T00:42:44;5.27;;;1.53;;
16543;SDS011;8384;47.996;7.786;2022-10-16T00:45:10;3.10;;;1.30;;
16543;SDS011;8384;47.996;7.786;2022-10-16T00:47:39;2.40;;;1.50;;
16543;SDS011;8384;47.996;7.786;2022-10-16T00:52:44;4.40;;;1.50;;
16543;SDS011;8384;47.996;7.786;2022-10-16T00:55:12;8.33;;;2.10;;
16543;SDS011;8384;47.996;7.786;2022-10-16T00:57:38;6.60;;;1.63;;
16543;SDS011;8384;47.996;7.786;2022-10-16T01:00:04;5.33;;;1.70;;
16543;SDS011;8384;47.996;7.786;2022-10-16T01:02:42;5.40;;;1.60;;
16543;SDS011;8384;47.996;7.786;2022-10-16T01:05:07;2.53;;;1.20;;
16543;SDS011;8384;47.996;7.786;2022-10-16T01:10:25;4.30;;;1.33;;
16543;SDS011;8384;47.996;7.786;2022-10-16T01:21:05;8.73;;;3.17;;
16543;SDS011;8384;47.996;7.786;2022-10-16T01:23:51;5.30;;;2.17;;
16543;SDS011;8384;47.996;7.786;2022-10-16T01:29:03;8.97;;;4.00;;
16543;SDS011;8384;47.996;7.786;2022-10-16T01:31:39;9.87;;;3.80;;
16543;SDS011;8384;47.996;7.786;2022-10-16T01:34:08;6.17;;;3.33;;
16543;SDS011;8384;47.996;7.786;2022-10-16T01:36:46;5.17;;;2.93;;
16543;SDS011;8384;47.996;7.786;2022-10-16T01:39:16;7.40;;;3.07;;
16543;SDS011;8384;47.996;7.786;2022-10-16T01:41:48;8.30;;;2.30;;
16543;SDS011;8384;47.996;7.786;2022-10-16T01:46:48;7.20;;;2.20;;
16543;SDS011;8384;47.996;7.786;2022-10-16T01:49:17;6.67;;;2.30;;
16543;SDS011;8384;47.996;7.786;2022-10-16T01:51:45;4.53;;;2.00;;
16543;SDS011;8384;47.996;7.786;2022-10-16T01:54:14;5.63;;;2.10;;
16543;SDS011;8384;47.996;7.786;2022-10-16T01:56:43;6.37;;;2.10;;
16543;SDS011;8384;47.996;7.786;2022-10-16T01:59:12;8.93;;;2.73;;
16543;SDS011;8384;47.996;7.786;2022-10-16T02:01:42;2.30;;;2.00;;
16543;SDS011;8384;47.996;7.786;2022-10-16T02:04:23;11.47;;;2.60;;
16543;SDS011;8384;47.996;7.786;2022-10-16T02:06:56;7.57;;;1.83;;
16543;SDS011;8384;47.996;7.786;2022-10-16T02:09:22;8.03;;;2.90;;
16543;SDS011;8384;47.996;7.786;2022-10-16T02:11:47;8.10;;;2.57;;
16543;SDS011;8384;47.996;7.786;2022-10-16T02:14:14;2.60;;;2.40;;
16543;SDS011;8384;47.996;7.786;2022-10-16T02:16:41;8.57;;;2.10;;
16543;SDS011;8384;47.996;7.786;2022-10-16T02:19:09;4.63;;;2.33;;
16543;SDS011;8384;47.996;7.786;2022-10-16T02:29:37;3.20;;;2.20;;
16543;SDS011;8384;47.996;7.786;2022-10-16T02:32:09;7.87;;;2.37;;
16543;SDS011;8384;47.996;7.786;2022-10-16T02:34:37;8.93;;;2.23;;
16543;SDS011;8384;47.996;7.786;2022-10-16T02:37:05;6.57;;;2.47;;
16543;SDS011;8384;47.996;7.786;2022-10-16T02:39:31;2.80;;;2.17;;
16543;SDS011;8384;47.996;7.786;2022-10-16T02:41:58;4.20;;;1.90;;
16543;SDS011;8384;47.996;7.786;2022-10-16T02:44:23;4.37;;;2.10;;
16543;SDS011;8384;47.996;7.786;2022-10-16T02:46:49;3.30;;;1.93;;
16543;SDS011;8384;47.996;7.786;2022-10-16T02:49:14;6.30;;;2.20;;
16543;SDS011;8384;47.996;7.786;2022-10-16T02:51:39;3.47;;;1.93;;
16543;SDS011;8384;47.996;7.786;2022-10-16T02:54:05;6.40;;;2.10;;
16543;SDS011;8384;47.996;7.786;2022-10-16T02:56:30;6.80;;;2.63;;
16543;SDS011;8384;47.996;7.786;2022-10-16T02:58:56;6.80;;;2.47;;
16543;SDS011;8384;47.996;7.786;2022-10-16T03:01:21;7.73;;;2.20;;
16543;SDS011;8384;47.996;7.786;2022-10-16T03:03:46;4.20;;;2.40;;
16543;SDS011;8384;47.996;7.786;2022-10-16T03:06:12;4.50;;;1.90;;
16543;SDS011;8384;47.996;7.786;2022-10-16T03:08:37;8.90;;;2.20;;
16543;SDS011;8384;47.996;7.786;2022-10-16T03:11:02;8.60;;;2.07;;
16543;SDS011;8384;47.996;7.786;2022-10-16T03:13:28;6.30;;;2.30;;
16543;SDS011;8384;47.996;7.786;2022-10-16T03:15:53;4.67;;;2.10;;
16543;SDS011;8384;47.996;7.786;2022-10-16T03:18:18;8.00;;;2.23;;
16543;SDS011;8384;47.996;7.786;2022-10-16T03:20:43;8.77;;;2.50;;
16543;SDS011;8384;47.996;7.786;2022-10-16T03:23:09;5.17;;;1.90;;
16543;SDS011;8384;47.996;7.786;2022-10-16T03:25:34;4.77;;;1.87;;
16543;SDS011;8384;47.996;7.786;2022-10-16T03:28:00;5.87;;;2.80;;
16543;SDS011;8384;47.996;7.786;2022-10-16T03:30:25;6.03;;;2.43;;
16543;SDS011;8384;47.996;7.786;2022-10-16T03:32:50;5.90;;;2.40;;
16543;SDS011;8384;47.996;7.786;2022-10-16T03:35:19;4.33;;;2.10;;
16543;SDS011;8384;47.996;7.786;2022-10-16T03:37:45;4.63;;;2.47;;
16543;SDS011;8384;47.996;7.786;2022-10-16T03:40:10;5.77;;;2.23;;
16543;SDS011;8384;47.996;7.786;2022-10-16T03:42:36;3.63;;;2.33;;
16543;SDS011;8384;47.996;7.786;2022-10-16T03:45:01;3.37;;;2.20;;
16543;SDS011;8384;47.996;7.786;2022-10-16T03:47:26;8.90;;;2.57;;
16543;SDS011;8384;47.996;7.786;2022-10-16T03:49:52;5.37;;;2.60;;
16543;SDS011;8384;47.996;7.786;2022-10-16T03:52:17;5.07;;;2.60;;
16543;SDS011;8384;47.996;7.786;2022-10-16T03:54:42;4.30;;;2.20;;
16543;SDS011;8384;47.996;7.786;2022-10-16T03:57:08;4.80;;;2.70;;
16543;SDS011;8384;47.996;7.786;2022-10-16T03:59:33;7.17;;;2.70;;
16543;SDS011;8384;47.996;7.786;2022-10-16T04:01:59;6.83;;;2.40;;
16543;SDS011;8384;47.996;7.786;2022-10-16T04:04:24;5.97;;;2.70;;
16543;SDS011;8384;47.996;7.786;2022-10-16T04:06:50;6.50;;;2.40;;
16543;SDS011;8384;47.996;7.786;2022-10-16T04:09:15;5.23;;;2.13;;
16543;SDS011;8384;47.996;7.786;2022-10-16T04:11:40;5.47;;;2.20;;
16543;SDS011;8384;47.996;7.786;2022-10-16T04:14:05;3.87;;;1.90;;
16543;SDS011;8384;47.996;7.786;2022-10-16T04:16:31;5.00;;;2.23;;
16543;SDS011;8384;47.996;7.786;2022-10-16T04:18:56;5.50;;;2.50;;
16543;SDS011;8384;47.996;7.786;2022-10-16T04:21:21;2.07;;;1.80;;
16543;SDS011;8384;47.996;7.786;2022-10-16T04:23:47;5.60;;;2.10;;
16543;SDS011;8384;47.996;7.786;2022-10-16T04:26:12;4.47;;;1.83;;
16543;SDS011;8384;47.996;7.786;2022-10-16T04:28:38;3.63;;;1.60;;
16543;SDS011;8384;47.996;7.786;2022-10-16T04:31:03;2.03;;;1.30;;
16543;SDS011;8384;47.996;7.786;2022-10-16T04:33:29;5.80;;;1.60;;
16543;SDS011;8384;47.996;7.786;2022-10-16T04:35:58;2.43;;;1.60;;
16543;SDS011;8384;47.996;7.786;2022-10-16T04:38:24;2.73;;;1.40;;
16543;SDS011;8384;47.996;7.786;2022-10-16T04:40:50;2.23;;;1.60;;
16543;SDS011;8384;47.996;7.786;2022-10-16T04:43:15;4.20;;;1.40;;
16543;SDS011;8384;47.996;7.786;2022-10-16T04:45:41;2.97;;;1.40;;
16543;SDS011;8384;47.996;7.786;2022-10-16T04:48:06;1.30;;;1.20;;
16543;SDS011;8384;47.996;7.786;2022-10-16T04:50:31;2.90;;;1.10;;
16543;SDS011;8384;47.996;7.786;2022-10-16T04:52:57;4.50;;;1.70;;
16543;SDS011;8384;47.996;7.786;2022-10-16T04:55:22;4.47;;;1.43;;
16543;SDS011;8384;47.996;7.786;2022-10-16T04:57:47;4.20;;;1.30;;
16543;SDS011;8384;47.996;7.786;2022-10-16T05:00:13;3.67;;;1.50;;
16543;SDS011;8384;47.996;7.786;2022-10-16T05:02:38;4.87;;;1.50;;
16543;SDS011;8384;47.996;7.786;2022-10-16T05:05:04;1.80;;;1.40;;
16543;SDS011;8384;47.996;7.786;2022-10-16T05:07:30;2.80;;;1.53;;
16543;SDS011;8384;47.996;7.786;2022-10-16T05:09:55;3.07;;;1.50;;
16543;SDS011;8384;47.996;7.786;2022-10-16T05:12:20;2.50;;;1.23;;
16543;SDS011;8384;47.996;7.786;2022-10-16T05:14:46;4.70;;;1.43;;
16543;SDS011;8384;47.996;7.786;2022-10-16T05:17:11;5.27;;;1.73;;
16543;SDS011;8384;47.996;7.786;2022-10-16T05:19:36;3.30;;;1.60;;
16543;SDS011;8384;47.996;7.786;2022-10-16T05:22:01;2.80;;;1.63;;
16543;SDS011;8384;47.996;7.786;2022-10-16T05:24:27;2.33;;;1.30;;
16543;SDS011;8384;47.996;7.786;2022-10-16T05:26:52;3.77;;;1.60;;
16543;SDS011;8384;47.996;7.786;2022-10-16T05:29:18;3.20;;;1.77;;
16543;SDS011;8384;47.996;7.786;2022-10-16T05:31:43;2.73;;;1.40;;
16543;SDS011;8384;47.996;7.786;2022-10-16T05:34:08;3.60;;;1.33;;
16543;SDS011;8384;47.996;7.786;2022-10-16T05:36:34;10.50;;;2.03;;
16543;SDS011;8384;47.996;7.786;2022-10-16T05:38:59;4.10;;;1.77;;
16543;SDS011;8384;47.996;7.786;2022-10-16T05:41:25;5.97;;;1.67;;
16543;SDS011;8384;47.996;7.786;2022-10-16T05:43:51;4.97;;;1.70;;
16543;SDS011;8384;47.996;7.786;2022-10-16T05:46:18;3.27;;;1.47;;
16543;SDS011;8384;47.996;7.786;2022-10-16T05:48:44;2.93;;;1.50;;
16543;SDS011;8384;47.996;7.786;2022-10-16T05:51:10;3.63;;;1.60;;
16543;SDS011;8384;47.996;7.786;2022-10-16T05:53:37;4.63;;;1.50;;
16543;SDS011;8384;47.996;7.786;2022-10-16T05:56:05;2.40;;;1.30;;
16543;SDS011;8384;47.996;7.786;2022-10-16T05:58:32;2.20;;;1.57;;
16543;SDS011;8384;47.996;7.786;2022-10-16T06:01:04;2.77;;;1.60;;
16543;SDS011;8384;47.996;7.786;2022-10-16T06:03:32;3.07;;;1.70;;
16543;SDS011;8384;47.996;7.786;2022-10-16T06:05:57;4.53;;;1.80;;
16543;SDS011;8384;47.996;7.786;2022-10-16T06:08:23;2.70;;;1.80;;
16543;SDS011;8384;47.996;7.786;2022-10-16T06:10:49;2.70;;;1.43;;
16543;SDS011;8384;47.996;7.786;2022-10-16T06:13:24;10.80;;;1.93;;
16543;SDS011;8384;47.996;7.786;2022-10-16T06:15:50;4.67;;;1.53;;
16543;SDS011;8384;47.996;7.786;2022-10-16T06:18:15;3.93;;;1.33;;
16543;SDS011;8384;47.996;7.786;2022-10-16T06:20:40;8.33;;;1.90;;
16543;SDS011;8384;47.996;7.786;2022-10-16T06:23:05;9.77;;;1.87;;
16543;SDS011;8384;47.996;7.786;2022-10-16T06:25:31;7.30;;;1.93;;
16543;SDS011;8384;47.996;7.786;2022-10-16T06:27:56;6.23;;;1.83;;
16543;SDS011;8384;47.996;7.786;2022-10-16T06:30:22;7.87;;;2.17;;
16543;SDS011;8384;47.996;7.786;2022-10-16T06:32:47;10.87;;;2.10;;
16543;SDS011;8384;47.996;7.786;2022-10-16T06:35:12;5.10;;;2.00;;
16543;SDS011;8384;47.996;7.786;2022-10-16T06:37:38;7.37;;;1.90;;
16543;SDS011;8384;47.996;7.786;2022-10-16T06:40:03;3.70;;;1.70;;
16543;SDS011;8384;47.996;7.786;2022-10-16T06:42:29;3.80;;;1.90;;
16543;SDS011;8384;47.996;7.786;2022-10-16T06:44:54;2.87;;;1.80;;
16543;SDS011;8384;47.996;7.786;2022-10-16T06:47:20;6.17;;;2.03;;
16543;SDS011;8384;47.996;7.786;2022-10-16T06:49:45;5.33;;;1.87;;
16543;SDS011;8384;47.996;7.786;2022-10-16T06:52:10;5.57;;;1.90;;
16543;SDS011;8384;47.996;7.786;2022-10-16T06:54:35;6.37;;;1.70;;
16543;SDS011;8384;47.996;7.786;2022-10-16T06:57:01;4.33;;;1.87;;
16543;SDS011;8384;47.996;7.786;2022-10-16T06:59:26;5.73;;;2.17;;
16543;SDS011;8384;47.996;7.786;2022-10-16T07:01:52;5.70;;;2.00;;
16543;SDS011;8384;47.996;7.786;2022-10-16T07:04:17;4.47;;;2.00;;
16543;SDS011;8384;47.996;7.786;2022-10-16T07:06:43;6.10;;;1.93;;
16543;SDS011;8384;47.996;7.786;2022-10-16T07:09:09;5.80;;;1.90;;
16543;SDS011;8384;47.996;7.786;2022-10-16T07:11:36;2.97;;;1.57;;
16543;SDS011;8384;47.996;7.786;2022-10-16T07:14:03;2.90;;;2.10;;
16543;SDS011;8384;47.996;7.786;2022-10-16T07:16:30;3.63;;;1.80;;
16543;SDS011;8384;47.996;7.786;2022-10-16T07:18:57;6.33;;;2.00;;
16543;SDS011;8384;47.996;7.786;2022-10-16T07:21:25;4.87;;;1.87;;
16543;SDS011;8384;47.996;7.786;2022-10-16T07:23:54;6.23;;;2.40;;
16543;SDS011;8384;47.996;7.786;2022-10-16T07:26:21;7.97;;;2.37;;
16543;SDS011;8384;47.996;7.786;2022-10-16T07:28:47;6.53;;;1.87;;
16543;SDS011;8384;47.996;7.786;2022-10-16T07:31:13;6.03;;;2.10;;
16543;SDS011;8384;47.996;7.786;2022-10-16T07:33:40;2.50;;;2.03;;
16543;SDS011;8384;47.996;7.786;2022-10-16T07:36:10;3.50;;;1.83;;
16543;SDS011;8384;47.996;7.786;2022-10-16T07:38:35;5.17;;;2.10;;
16543;SDS011;8384;47.996;7.786;2022-10-16T07:41:02;6.67;;;2.13;;
16543;SDS011;8384;47.996;7.786;2022-10-16T07:43:29;2.10;;;2.00;;
16543;SDS011;8384;47.996;7.786;2022-10-16T07:45:54;2.70;;;1.80;;
16543;SDS011;8384;47.996;7.786;2022-10-16T07:48:20;3.43;;;1.80;;
16543;SDS011;8384;47.996;7.786;2022-10-16T07:50:47;4.10;;;2.10;;
16543;SDS011;8384;47.996;7.786;2022-10-16T07:53:12;4.97;;;2.10;;
16543;SDS011;8384;47.996;7.786;2022-10-16T07:55:38;2.73;;;1.80;;
16543;SDS011;8384;47.996;7.786;2022-10-16T07:58:03;2.67;;;1.60;;
16543;SDS011;8384;47.996;7.786;2022-10-16T08:00:29;3.57;;;2.10;;
16543;SDS011;8384;47.996;7.786;2022-10-16T08:02:56;5.53;;;1.87;;
16543;SDS011;8384;47.996;7.786;2022-10-16T08:05:24;3.67;;;2.07;;
16543;SDS011;8384;47.996;7.786;2022-10-16T08:07:50;6.80;;;2.10;;
16543;SDS011;8384;47.996;7.786;2022-10-16T08:10:16;5.57;;;1.93;;
16543;SDS011;8384;47.996;7.786;2022-10-16T08:12:42;6.00;;;1.93;;
16543;SDS011;8384;47.996;7.786;2022-10-16T08:15:07;2.40;;;1.73;;
16543;SDS011;8384;47.996;7.786;2022-10-16T08:17:33;4.37;;;1.80;;
16543;SDS011;8384;47.996;7.786;2022-10-16T08:19:59;2.50;;;1.87;;
16543;SDS011;8384;47.996;7.786;2022-10-16T08:22:24;3.47;;;1.73;;
16543;SDS011;8384;47.996;7.786;2022-10-16T08:24:49;4.17;;;1.50;;
16543;SDS011;8384;47.996;7.786;2022-10-16T08:27:14;4.50;;;1.63;;
16543;SDS011;8384;47.996;7.786;2022-10-16T08:29:40;1.90;;;1.50;;
16543;SDS011;8384;47.996;7.786;2022-10-16T08:32:05;3.97;;;1.90;;
16543;SDS011;8384;47.996;7.786;2022-10-16T08:34:31;4.60;;;1.93;;
16543;SDS011;8384;47.996;7.786;2022-10-16T08:36:56;3.50;;;2.03;;
16543;SDS011;8384;47.996;7.786;2022-10-16T08:39:21;3.50;;;2.10;;
16543;SDS011;8384;47.996;7.786;2022-10-16T08:42:08;2.20;;;1.80;;
16543;SDS011;8384;47.996;7.786;2022-10-16T08:44:49;2.87;;;1.63;;
16543;SDS011;8384;47.996;7.786;2022-10-16T08:50:10;3.13;;;1.60;;
16543;SDS011;8384;47.996;7.786;2022-10-16T08:52:39;2.07;;;1.63;;
16543;SDS011;8384;47.996;7.786;2022-10-16T08:55:17;3.97;;;1.60;;
16543;SDS011;8384;47.996;7.786;2022-10-16T08:57:50;2.97;;;1.80;;
16543;SDS011;8384;47.996;7.786;2022-10-16T09:00:15;1.83;;;1.37;;
16543;SDS011;8384;47.996;7.786;2022-10-16T09:02:52;3.53;;;1.67;;
16543;SDS011;8384;47.996;7.786;2022-10-16T09:05:52;3.27;;;1.67;;
16543;SDS011;8384;47.996;7.786;2022-10-16T09:16:36;2.87;;;1.60;;
16543;SDS011;8384;47.996;7.786;2022-10-16T09:19:15;2.70;;;1.60;;
16543;SDS011;8384;47.996;7.786;2022-10-16T09:21:52;4.07;;;2.00;;
16543;SDS011;8384;47.996;7.786;2022-10-16T09:24:20;3.47;;;1.70;;
16543;SDS011;8384;47.996;7.786;2022-10-16T09:26:46;4.60;;;1.83;;
16543;SDS011;8384;47.996;7.786;2022-10-16T09:29:12;4.70;;;2.10;;
16543;SDS011;8384;47.996;7.786;2022-10-16T09:31:38;2.77;;;2.00;;
16543;SDS011;8384;47.996;7.786;2022-10-16T09:34:04;2.43;;;1.80;;
16543;SDS011;8384;47.996;7.786;2022-10-16T09:36:35;3.17;;;1.90;;
16543;SDS011;8384;47.996;7.786;2022-10-16T09:39:07;3.10;;;1.87;;
16543;SDS011;8384;47.996;7.786;2022-10-16T09:41:35;2.43;;;1.97;;
16543;SDS011;8384;47.996;7.786;2022-10-16T09:44:05;2.53;;;1.90;;
16543;SDS011;8384;47.996;7.786;2022-10-16T09:46:40;2.63;;;2.30;;
16543;SDS011;8384;47.996;7.786;2022-10-16T09:49:18;4.23;;;2.70;;
16543;SDS011;8384;47.996;7.786;2022-10-16T09:51:47;2.50;;;2.30;;
16543;SDS011;8384;47.996;7.786;2022-10-16T09:54:14;3.07;;;2.03;;
16543;SDS011;8384;47.996;7.786;2022-10-16T09:56:41;3.23;;;1.30;;
16543;SDS011;8384;47.996;7.786;2022-10-16T09:59:14;3.17;;;1.30;;
16543;SDS011;8384;47.996;7.786;2022-10-16T10:01:42;4.10;;;1.20;;
16543;SDS011;8384;47.996;7.786;2022-10-16T10:04:13;1.90;;;1.07;;
16543;SDS011;8384;47.996;7.786;2022-10-16T10:06:43;1.87;;;1.27;;
16543;SDS011;8384;47.996;7.786;2022-10-16T10:11:52;2.20;;;1.00;;
16543;SDS011;8384;47.996;7.786;2022-10-16T10:14:25;2.77;;;1.00;;
16543;SDS011;8384;47.996;7.786;2022-10-16T10:17:02;1.70;;;0.90;;
16543;SDS011;8384;47.996;7.786;2022-10-16T10:19:53;2.87;;;0.97;;
16543;SDS011;8384;47.996;7.786;2022-10-16T10:41:19;1.67;;;0.90;;
16543;SDS011;8384;47.996;7.786;2022-10-16T10:44:03;2.87;;;1.10;;
16543;SDS011;8384;47.996;7.786;2022-10-16T10:46:56;2.00;;;1.10;;
16543;SDS011;8384;47.996;7.786;2022-10-16T10:52:13;1.40;;;0.87;;
16543;SDS011;8384;47.996;7.786;2022-10-16T10:54:50;2.60;;;0.90;;
16543;SDS011;8384;47.996;7.786;2022-10-16T11:06:03;0.90;;;0.90;;
16543;SDS011;8384;47.996;7.786;2022-10-16T11:08:36;1.80;;;0.90;;
16543;SDS011;8384;47.996;7.786;2022-10-16T11:14:51;2.23;;;0.97;;
16543;SDS011;8384;47.996;7.786;2022-10-16T11:16:55;2.63;;;1.00;;
16543;SDS011;8384;47.996;7.786;2022-10-16T11:19:39;3.10;;;0.90;;
16543;SDS011;8384;47.996;7.786;2022-10-16T11:22:23;4.43;;;0.90;;
16543;SDS011;8384;47.996;7.786;2022-10-16T11:25:00;1.87;;;0.90;;
16543;SDS011;8384;47.996;7.786;2022-10-16T11:27:50;2.13;;;0.80;;
16543;SDS011;8384;47.996;7.786;2022-10-16T11:30:26;4.27;;;1.00;;
16543;SDS011;8384;47.996;7.786;2022-10-16T11:35:47;1.57;;;1.03;;
16543;SDS011;8384;47.996;7.786;2022-10-16T11:38:23;1.63;;;1.10;;
16543;SDS011;8384;47.996;7.786;2022-10-16T11:40:52;2.80;;;1.10;;
16543;SDS011;8384;47.996;7.786;2022-10-16T11:43:32;1.30;;;0.73;;
16543;SDS011;8384;47.996;7.786;2022-10-16T11:46:04;1.00;;;0.90;;
16543;SDS011;8384;47.996;7.786;2022-10-16T11:48:37;1.80;;;1.17;;
16543;SDS011;8384;47.996;7.786;2022-10-16T11:51:11;2.33;;;1.03;;
16543;SDS011;8384;47.996;7.786;2022-10-16T11:57:08;1.00;;;1.00;;
16543;SDS011;8384;47.996;7.786;2022-10-16T11:59:46;1.63;;;1.00;;
16543;SDS011;8384;47.996;7.786;2022-10-16T12:07:49;2.97;;;0.90;;
16543;SDS011;8384;47.996;7.786;2022-10-16T12:10:24;2.43;;;1.20;;
16543;SDS011;8384;47.996;7.786;2022-10-16T12:12:52;1.83;;;1.00;;
16543;SDS011;8384;47.996;7.786;2022-10-16T12:15:22;2.70;;;1.00;;
16543;SDS011;8384;47.996;7.786;2022-10-16T12:17:52;4.33;;;1.10;;
16543;SDS011;8384;47.996;7.786;2022-10-16T12:20:31;2.27;;;1.30;;
16543;SDS011;8384;47.996;7.786;2022-10-16T12:23:06;4.77;;;2.90;;
16543;SDS011;8384;47.996;7.786;2022-10-16T12:25:33;2.07;;;1.07;;
16543;SDS011;8384;47.996;7.786;2022-10-16T12:28:01;2.70;;;1.33;;
16543;SDS011;8384;47.996;7.786;2022-10-16T12:30:30;1.90;;;1.23;;
16543;SDS011;8384;47.996;7.786;2022-10-16T12:32:59;2.17;;;1.07;;
16543;SDS011;8384;47.996;7.786;2022-10-16T12:35:27;4.63;;;1.50;;
16543;SDS011;8384;47.996;7.786;2022-10-16T12:38:04;3.27;;;1.30;;
16543;SDS011;8384;47.996;7.786;2022-10-16T12:40:32;2.80;;;1.47;;
16543;SDS011;8384;47.996;7.786;2022-10-16T12:43:10;4.03;;;1.40;;
16543;SDS011;8384;47.996;7.786;2022-10-16T12:45:37;4.93;;;1.20;;
16543;SDS011;8384;47.996;7.786;2022-10-16T12:48:04;3.13;;;1.27;;
16543;SDS011;8384;47.996;7.786;2022-10-16T12:50:43;1.77;;;1.10;;
16543;SDS011;8384;47.996;7.786;2022-10-16T12:53:19;2.57;;;1.20;;
16543;SDS011;8384;47.996;7.786;2022-10-16T12:56:34;4.20;;;1.37;;
16543;SDS011;8384;47.996;7.786;2022-10-16T13:01:34;1.20;;;1.10;;
16543;SDS011;8384;47.996;7.786;2022-10-16T13:17:34;1.30;;;1.20;;
16543;SDS011;8384;47.996;7.786;2022-10-16T13:28:34;2.10;;;0.97;;
16543;SDS011;8384;47.996;7.786;2022-10-16T13:31:02;2.63;;;1.30;;
16543;SDS011;8384;47.996;7.786;2022-10-16T13:33:35;1.10;;;1.00;;
16543;SDS011;8384;47.996;7.786;2022-10-16T13:36:02;2.80;;;1.10;;
16543;SDS011;8384;47.996;7.786;2022-10-16T13:38:30;3.67;;;2.90;;
16543;SDS011;8384;47.996;7.786;2022-10-16T13:41:06;3.40;;;1.00;;
16543;SDS011;8384;47.996;7.786;2022-10-16T13:43:39;1.13;;;1.00;;
16543;SDS011;8384;47.996;7.786;2022-10-16T13:46:12;1.90;;;0.90;;
16543;SDS011;8384;47.996;7.786;2022-10-16T13:48:40;1.43;;;0.97;;
16543;SDS011;8384;47.996;7.786;2022-10-16T13:51:11;1.67;;;1.23;;
16543;SDS011;8384;47.996;7.786;2022-10-16T13:53:39;1.07;;;1.00;;
16543;SDS011;8384;47.996;7.786;2022-10-16T13:56:06;1.37;;;0.90;;
16543;SDS011;8384;47.996;7.786;2022-10-16T13:58:35;1.63;;;0.90;;
16543;SDS011;8384;47.996;7.786;2022-10-16T14:01:02;1.07;;;0.97;;
16543;SDS011;8384;47.996;7.786;2022-10-16T14:03:30;1.77;;;1.13;;
16543;SDS011;8384;47.996;7.786;2022-10-16T14:06:01;1.93;;;1.30;;
16543;SDS011;8384;47.996;7.786;2022-10-16T14:08:29;2.17;;;1.30;;
16543;SDS011;8384;47.996;7.786;2022-10-16T14:10:56;2.97;;;1.40;;
16543;SDS011;8384;47.996;7.786;2022-10-16T14:13:26;2.70;;;1.30;;
16543;SDS011;8384;47.996;7.786;2022-10-16T14:15:53;1.83;;;1.20;;
16543;SDS011;8384;47.996;7.786;2022-10-16T14:18:23;3.97;;;1.10;;
16543;SDS011;8384;47.996;7.786;2022-10-16T14:20:51;2.00;;;1.10;;
16543;SDS011;8384;47.996;7.786;2022-10-16T14:23:28;2.90;;;1.00;;
16543;SDS011;8384;47.996;7.786;2022-10-16T14:28:36;2.60;;;0.90;;
16543;SDS011;8384;47.996;7.786;2022-10-16T14:31:13;1.10;;;0.80;;
16543;SDS011;8384;47.996;7.786;2022-10-16T14:33:50;1.50;;;0.87;;
16543;SDS011;8384;47.996;7.786;2022-10-16T14:36:15;1.30;;;1.13;;
16543;SDS011;8384;47.996;7.786;2022-10-16T14:38:55;2.73;;;1.00;;
16543;SDS011;8384;47.996;7.786;2022-10-16T14:41:23;3.33;;;1.10;;
16543;SDS011;8384;47.996;7.786;2022-10-16T14:44:23;2.10;;;1.07;;
16543;SDS011;8384;47.996;7.786;2022-10-16T14:46:42;1.33;;;1.10;;
16543;SDS011;8384;47.996;7.786;2022-10-16T14:51:34;3.13;;;2.37;;
16543;SDS011;8384;47.996;7.786;2022-10-16T14:54:00;3.33;;;2.77;;
16543;SDS011;8384;47.996;7.786;2022-10-16T14:56:29;1.90;;;0.97;;
16543;SDS011;8384;47.996;7.786;2022-10-16T14:58:56;1.87;;;1.07;;
16543;SDS011;8384;47.996;7.786;2022-10-16T15:01:22;2.80;;;1.00;;
16543;SDS011;8384;47.996;7.786;2022-10-16T15:03:47;2.40;;;0.90;;
16543;SDS011;8384;47.996;7.786;2022-10-16T15:06:14;1.80;;;0.93;;
16543;SDS011;8384;47.996;7.786;2022-10-16T15:08:40;1.93;;;1.30;;
16543;SDS011;8384;47.996;7.786;2022-10-16T15:11:12;2.30;;;1.00;;
16543;SDS011;8384;47.996;7.786;2022-10-16T15:13:40;1.67;;;1.00;;
16543;SDS011;8384;47.996;7.786;2022-10-16T15:16:07;1.93;;;0.90;;
16543;SDS011;8384;47.996;7.786;2022-10-16T15:18:35;2.30;;;1.10;;
16543;SDS011;8384;47.996;7.786;2022-10-16T15:21:01;2.17;;;1.07;;
16543;SDS011;8384;47.996;7.786;2022-10-16T15:23:26;2.63;;;1.10;;
16543;SDS011;8384;47.996;7.786;2022-10-16T15:25:52;1.03;;;0.80;;
16543;SDS011;8384;47.996;7.786;2022-10-16T15:28:19;1.87;;;1.00;;
16543;SDS011;8384;47.996;7.786;2022-10-16T15:30:46;1.90;;;0.80;;
16543;SDS011;8384;47.996;7.786;2022-10-16T15:33:18;1.93;;;0.90;;
16543;SDS011;8384;47.996;7.786;2022-10-16T15:35:49;1.27;;;1.07;;
16543;SDS011;8384;47.996;7.786;2022-10-16T15:38:16;2.03;;;1.00;;
16543;SDS011;8384;47.996;7.786;2022-10-16T15:40:42;7.00;;;6.23;;
16543;SDS011;8384;47.996;7.786;2022-10-16T15:43:08;44.30;;;40.30;;
16543;SDS011;8384;47.996;7.786;2022-10-16T15:45:33;26.63;;;24.17;;
16543;SDS011;8384;47.996;7.786;2022-10-16T15:47:59;43.43;;;39.17;;
16543;SDS011;8384;47.996;7.786;2022-10-16T15:50:24;61.63;;;55.83;;
16543;SDS011;8384;47.996;7.786;2022-10-16T15:52:50;52.87;;;48.07;;
16543;SDS011;8384;47.996;7.786;2022-10-16T15:55:16;40.87;;;37.17;;
16543;SDS011;8384;47.996;7.786;2022-10-16T15:57:43;33.27;;;30.27;;
16543;SDS011;8384;47.996;7.786;2022-10-16T16:00:10;20.83;;;18.87;;
16543;SDS011;8384;47.996;7.786;2022-10-16T16:02:42;22.57;;;20.40;;
16543;SDS011;8384;47.996;7.786;2022-10-16T16:05:10;15.33;;;13.93;;
16543;SDS011;8384;47.996;7.786;2022-10-16T16:07:36;9.83;;;8.93;;
16543;SDS011;8384;47.996;7.786;2022-10-16T16:10:03;8.97;;;8.17;;
16543;SDS011;8384;47.996;7.786;2022-10-16T16:12:30;8.70;;;5.77;;
16543;SDS011;8384;47.996;7.786;2022-10-16T16:14:55;7.37;;;4.77;;
16543;SDS011;8384;47.996;7.786;2022-10-16T16:17:21;7.83;;;5.43;;
16543;SDS011;8384;47.996;7.786;2022-10-16T16:19:46;7.57;;;4.30;;
16543;SDS011;8384;47.996;7.786;2022-10-16T16:22:12;7.67;;;6.20;;
16543;SDS011;8384;47.996;7.786;2022-10-16T16:24:37;9.03;;;8.10;;
16543;SDS011;8384;47.996;7.786;2022-10-16T16:27:02;12.63;;;11.43;;
16543;SDS011;8384;47.996;7.786;2022-10-16T16:29:28;12.97;;;11.87;;
16543;SDS011;8384;47.996;7.786;2022-10-16T16:31:53;9.87;;;8.97;;
16543;SDS011;8384;47.996;7.786;2022-10-16T16:34:22;8.60;;;7.13;;
16543;SDS011;8384;47.996;7.786;2022-10-16T16:36:51;9.80;;;7.33;;
16543;SDS011;8384;47.996;7.786;2022-10-16T16:39:17;9.57;;;7.77;;
16543;SDS011;8384;47.996;7.786;2022-10-16T16:41:43;9.20;;;8.30;;
16543;SDS011;8384;47.996;7.786;2022-10-16T16:44:09;9.57;;;8.50;;
16543;SDS011;8384;47.996;7.786;2022-10-16T16:46:35;7.27;;;6.67;;
16543;SDS011;8384;47.996;7.786;2022-10-16T16:49:01;4.50;;;3.03;;
16543;SDS011;8384;47.996;7.786;2022-10-16T16:51:27;7.77;;;3.20;;
16543;SDS011;8384;47.996;7.786;2022-10-16T16:53:53;5.10;;;3.03;;
16543;SDS011;8384;47.996;7.786;2022-10-16T16:56:19;5.87;;;2.80;;
16543;SDS011;8384;47.996;7.786;2022-10-16T16:58:46;4.60;;;2.57;;
16543;SDS011;8384;47.996;7.786;2022-10-16T17:01:12;3.60;;;2.47;;
16543;SDS011;8384;47.996;7.786;2022-10-16T17:03:37;3.47;;;2.23;;